Time;durP1;ratioP1;P1;durP2;ratioP2;P2;SDS_P1;SDS_P2;PMS_P1;PMS_P2;Temp;Humidity;BMP_temperature;BMP_pressure;BME280_temperature;BME280_humidity;BME280_pressure;Samples;Min_cycle;Max_cycle;Signal;HPM_P1;HPM_P2
2022/04/02 00:01:31;;;;;;;5.70;2.50;;;;;;;15.17;49.21;93394.59;5085157;28;20441;-59
2022/04/02 00:03:58;;;;;;;5.73;1.90;;;;;;;15.41;47.37;93394.00;5086241;28;20516;-61
2022/04/02 00:06:25;;;;;;;4.23;1.60;;;;;;;15.39;46.02;93409.34;5085850;28;20471;-60
2022/04/02 00:08:52;;;;;;;3.40;1.20;;;;;;;15.09;45.39;93404.09;5085796;28;20441;-54
2022/04/02 00:11:19;;;;;;;4.23;1.30;;;;;;;15.04;46.67;93406.91;5085546;28;20971;-59
2022/04/02 00:13:45;;;;;;;5.00;1.43;;;;;;;15.33;42.72;93403.47;5085882;28;20441;-60
2022/04/02 00:16:12;;;;;;;3.97;1.17;;;;;;;15.72;41.08;93404.97;5085555;28;20967;-57
2022/04/02 00:18:39;;;;;;;2.83;1.20;;;;;;;16.17;40.73;93406.59;5083926;28;20473;-64
2022/04/02 00:21:06;;;;;;;3.00;0.97;;;;;;;15.60;41.63;93407.53;5085367;28;20974;-54
2022/04/02 00:23:36;;;;;;;5.00;1.43;;;;;;;15.68;42.30;93409.34;5085853;28;20544;-59
2022/04/02 00:26:04;;;;;;;3.63;1.00;;;;;;;16.18;40.86;93412.66;5084913;28;20532;-56
2022/04/02 00:28:36;;;;;;;5.33;1.10;;;;;;;15.66;40.60;93425.50;5086189;28;20444;-61
2022/04/02 00:31:05;;;;;;;2.97;1.10;;;;;;;15.61;41.84;93436.25;5084745;28;20437;-56
2022/04/02 00:33:32;;;;;;;1.90;1.00;;;;;;;15.27;42.11;93436.44;5085554;28;20900;-62
2022/04/02 00:35:59;;;;;;;2.90;0.77;;;;;;;15.88;40.94;93437.59;5084579;28;20445;-60
2022/04/02 00:38:26;;;;;;;1.93;0.50;;;;;;;15.76;41.12;93437.56;5085027;28;20485;-57
2022/04/02 00:40:54;;;;;;;2.80;0.70;;;;;;;15.79;41.00;93447.47;5084991;28;20901;-65
2022/04/02 00:43:22;;;;;;;2.97;0.60;;;;;;;15.42;40.87;93458.91;5085260;28;20544;-56
2022/04/02 00:45:57;;;;;;;2.97;0.40;;;;;;;15.76;39.27;93459.47;5085494;28;20441;-56
2022/04/02 00:48:24;;;;;;;4.93;0.77;;;;;;;15.43;41.27;93463.84;5083936;28;20457;-54
2022/04/02 00:50:55;;;;;;;1.80;0.60;;;;;;;15.54;40.26;93443.13;5070577;28;20524;-55
2022/04/02 00:53:30;;;;;;;1.07;0.43;;;;;;;15.72;39.48;93449.84;5071666;28;20481;-60
2022/04/02 00:55:59;;;;;;;0.20;0.20;;;;;;;15.67;39.09;93453.47;5069637;28;21034;-56
2022/04/02 00:58:26;;;;;;;0.23;0.20;;;;;;;15.06;39.42;93462.78;5070177;28;21012;-58
2022/04/02 01:00:53;;;;;;;0.30;0.20;;;;;;;15.48;38.67;93457.59;5070997;28;20448;-56
2022/04/02 01:03:23;;;;;;;1.87;0.40;;;;;;;15.92;37.00;93443.78;5069969;28;20491;-59
2022/04/02 01:05:50;;;;;;;0.63;0.30;;;;;;;16.11;38.25;93428.25;5071478;28;20425;-62
2022/04/02 01:08:21;;;;;;;0.50;0.30;;;;;;;16.21;38.67;93438.41;5071389;28;20422;-53
2022/04/02 01:10:48;;;;;;;1.13;0.50;;;;;;;16.42;38.07;93433.09;5070391;28;20433;-58
2022/04/02 01:13:16;;;;;;;1.90;0.60;;;;;;;15.89;39.26;93441.81;5069638;28;20468;-54
2022/04/02 01:15:45;;;;;;;1.33;0.53;;;;;;;15.50;39.62;93440.38;5086573;28;20466;-57
2022/04/02 01:18:15;;;;;;;1.83;0.80;;;;;;;15.98;39.13;93429.31;5069801;28;20489;-53
2022/04/02 01:20:43;;;;;;;1.90;0.70;;;;;;;16.10;39.56;93445.97;5069574;28;20521;-55
2022/04/02 01:23:10;;;;;;;2.43;0.80;;;;;;;15.80;39.91;93412.81;5086259;28;20438;-60
2022/04/02 01:25:43;;;;;;;2.60;0.70;;;;;;;15.93;40.09;93448.00;5069499;28;20472;-60
2022/04/02 01:28:17;;;;;;;0.73;0.70;;;;;;;16.47;37.58;93436.34;5086809;28;20441;-61
2022/04/02 01:30:47;;;;;;;1.20;0.70;;;;;;;16.77;37.80;93445.66;5069157;28;20445;-57
2022/04/02 01:33:14;;;;;;;2.70;0.77;;;;;;;16.18;39.01;93444.34;5070752;28;20529;-63
2022/04/02 01:35:41;;;;;;;0.70;0.70;;;;;;;16.05;39.28;93440.91;5069633;28;20442;-59
2022/04/02 01:38:18;;;;;;;1.17;0.80;;;;;;;15.85;38.35;93443.53;5069317;28;20555;-63
2022/04/02 01:40:46;;;;;;;3.83;0.80;;;;;;;16.30;37.79;93452.31;5085815;28;20438;-65
2022/04/02 01:43:15;;;;;;;1.93;0.80;;;;;;;15.88;38.39;93443.66;5069399;28;20549;-54
2022/04/02 01:45:55;;;;;;;1.60;0.80;;;;;;;15.63;39.38;93451.78;5069157;28;20442;-51
2022/04/02 01:48:25;;;;;;;2.63;0.73;;;;;;;15.52;39.37;93453.25;5086086;28;20992;-55
2022/04/02 01:50:59;;;;;;;3.20;0.70;;;;;;;15.67;40.11;93461.38;5085456;28;20454;-55
2022/04/02 01:53:27;;;;;;;1.63;0.60;;;;;;;15.74;38.33;93466.94;5085823;28;20835;-53
2022/04/02 01:55:55;;;;;;;1.03;0.60;;;;;;;15.58;38.22;93467.81;5067725;28;20473;-57
2022/04/02 01:58:44;;;;;;;0.80;0.60;;;;;;;16.04;38.17;93465.75;5070188;28;20489;-49
2022/04/02 02:01:16;;;;;;;2.43;0.63;;;;;;;16.13;38.01;93468.31;5084974;28;20537;-61
2022/04/02 02:03:44;;;;;;;2.63;1.20;;;;;;;16.18;37.91;93476.06;5069092;28;20437;-59
2022/04/02 02:06:12;;;;;;;0.73;0.70;;;;;;;15.93;38.59;93479.69;5067929;28;20450;-55
2022/04/02 02:08:43;;;;;;;1.90;1.00;;;;;;;16.62;37.46;93479.91;5068750;28;20437;-54
2022/04/02 02:11:26;;;;;;;3.00;0.80;;;;;;;16.11;38.21;93466.00;5085098;28;20976;-60
2022/04/02 02:14:29;;;;;;;2.57;1.07;;;;;;;15.95;38.69;93466.91;5027448;28;20451;-59
2022/04/02 02:17:15;;;;;;;2.47;1.03;;;;;;;16.07;38.50;93467.00;5066198;28;20484;-57
2022/04/02 02:19:46;;;;;;;3.40;0.93;;;;;;;16.15;37.39;93466.13;5068109;28;21076;-57
2022/04/02 02:22:13;;;;;;;3.00;0.73;;;;;;;16.37;36.69;93472.97;5068532;28;20442;-63
2022/04/02 02:24:40;;;;;;;3.43;0.80;;;;;;;15.91;37.44;93452.81;5069723;28;20437;-55
2022/04/02 02:27:08;;;;;;;1.10;0.70;;;;;;;16.21;36.85;93459.56;5070023;28;20442;-58
2022/04/02 02:29:35;;;;;;;1.00;0.50;;;;;;;15.70;37.63;93462.59;5069349;28;20442;-59
2022/04/02 02:32:14;;;;;;;1.33;0.60;;;;;;;16.46;36.76;93455.91;5068283;28;20859;-61
2022/04/02 02:37:30;;;;;;;0.97;0.40;;;;;;;16.49;36.18;93454.50;5069244;28;20557;-57
2022/04/02 02:40:10;;;;;;;1.50;0.70;;;;;;;17.16;35.48;93460.91;5067714;28;20879;-57
2022/04/02 02:42:38;;;;;;;0.70;0.50;;;;;;;17.10;35.87;93459.59;5083575;28;20480;-56
2022/04/02 02:45:25;;;;;;;2.57;0.57;;;;;;;16.88;35.85;93454.69;5068771;28;20481;-58
2022/04/02 02:47:59;;;;;;;0.97;0.40;;;;;;;16.88;36.90;93457.34;5068469;28;20530;-50
2022/04/02 02:50:46;;;;;;;2.60;0.70;;;;;;;16.87;37.56;93439.94;5068057;28;20445;-64
2022/04/02 02:53:15;;;;;;;1.10;0.57;;;;;;;17.00;36.60;93436.22;5067797;28;20571;-61
2022/04/02 02:55:44;;;;;;;3.43;0.63;;;;;;;16.94;36.07;93429.59;5067551;28;21003;-58
2022/04/02 02:58:11;;;;;;;0.93;0.60;;;;;;;16.59;36.89;93422.34;5069471;28;20461;-59
2022/04/02 03:00:40;;;;;;;2.17;0.80;;;;;;;16.77;37.35;93429.78;5065765;28;20625;-58
2022/04/02 03:03:15;;;;;;;1.37;0.70;;;;;;;16.79;37.97;93427.56;5067853;28;20437;-52
2022/04/02 03:05:46;;;;;;;2.33;0.93;;;;;;;17.05;37.43;93425.41;5067192;28;20533;-60
2022/04/02 03:08:13;;;;;;;1.77;1.00;;;;;;;16.94;36.97;93439.38;5069145;28;20422;-60
2022/04/02 03:11:00;;;;;;;5.37;0.80;;;;;;;16.72;36.76;93448.50;5068284;28;20477;-61
2022/04/02 03:13:31;;;;;;;2.37;1.27;;;;;;;16.94;36.93;93445.47;5067408;28;20452;-53
2022/04/02 03:16:06;;;;;;;1.40;0.80;;;;;;;16.96;36.08;93451.19;5067639;28;20818;-59
2022/04/02 03:18:37;;;;;;;0.80;0.80;;;;;;;16.90;36.66;93455.16;5067764;28;20570;-55
2022/04/02 03:21:08;;;;;;;1.80;0.80;;;;;;;15.57;38.23;93482.09;5066531;28;20903;-58
2022/04/02 03:23:35;;;;;;;1.77;0.70;;;;;;;16.23;36.74;93441.50;5069076;28;20450;-61
2022/04/02 03:26:02;;;;;;;2.90;0.70;;;;;;;17.15;36.39;93477.88;5067031;28;20832;-57
2022/04/02 03:28:35;;;;;;;1.67;0.80;;;;;;;17.20;35.81;93477.69;5066816;28;20859;-57
2022/04/02 03:31:03;;;;;;;2.57;1.20;;;;;;;17.14;35.98;93479.00;5067322;28;20560;-57
2022/04/02 03:33:33;;;;;;;1.33;1.07;;;;;;;17.38;36.37;93474.81;5067675;28;20458;-50
2022/04/02 03:36:02;;;;;;;1.70;0.73;;;;;;;17.28;36.70;93480.56;5067260;28;20442;-50
2022/04/02 03:38:30;;;;;;;4.33;0.93;;;;;;;17.27;36.06;93479.00;5067364;28;21031;-57
2022/04/02 03:40:59;;;;;;;1.53;0.83;;;;;;;17.40;37.03;93470.75;5066850;28;20446;-61
2022/04/02 03:43:27;;;;;;;1.20;0.80;;;;;;;16.94;36.47;93479.84;5067328;28;20457;-58
2022/04/02 03:47:07;;;;;;;5.23;0.90;;;;;;;16.97;35.69;93468.59;5068314;28;20452;-53
2022/04/02 03:48:42;;;;;;;1.47;0.80;;;;;;;17.34;36.68;93460.69;5068016;28;20449;-57
2022/04/02 03:51:09;;;;;;;2.07;0.90;;;;;;;16.88;35.78;93456.56;5084220;28;20446;-57
2022/04/02 03:53:37;;;;;;;1.90;0.60;;;;;;;17.12;34.21;93461.91;5066811;28;20843;-61
2022/04/02 03:56:15;;;;;;;0.87;0.50;;;;;;;16.89;35.23;93458.13;5068478;28;20453;-53
2022/04/02 03:58:50;;;;;;;3.13;0.57;;;;;;;17.20;34.86;93480.34;5068570;28;20888;-58
2022/04/02 04:01:17;;;;;;;0.93;0.50;;;;;;;17.44;34.71;93484.09;5066565;28;20477;-58
2022/04/02 04:03:45;;;;;;;1.63;0.80;;;;;;;17.37;35.09;93475.94;5066646;28;20444;-55
2022/04/02 04:06:13;;;;;;;2.90;1.00;;;;;;;17.29;36.38;93487.38;5066835;28;20442;-57
2022/04/02 04:08:40;;;;;;;3.87;1.07;;;;;;;16.75;37.87;93500.75;5067136;28;21084;-57
2022/04/02 04:11:08;;;;;;;4.77;1.10;;;;;;;17.03;37.66;93485.81;5067912;28;20436;-62
2022/04/02 04:13:38;;;;;;;3.00;1.10;;;;;;;16.53;38.20;93514.34;5068297;28;20503;-55
2022/04/02 04:16:07;;;;;;;2.67;1.20;;;;;;;16.66;37.15;93529.16;5066569;28;20835;-60
2022/04/02 04:18:36;;;;;;;2.50;1.20;;;;;;;16.83;36.82;93523.69;5066900;28;20474;-57
2022/04/02 04:21:03;;;;;;;1.77;1.10;;;;;;;16.87;37.27;93519.31;5067075;28;20516;-58
2022/04/02 04:23:31;;;;;;;1.63;1.10;;;;;;;17.13;37.43;93538.31;5068189;28;20528;-54
2022/04/02 04:26:01;;;;;;;2.37;1.20;;;;;;;16.75;37.30;93544.97;5070204;28;20532;-59
2022/04/02 04:28:34;;;;;;;4.90;1.20;;;;;;;16.78;37.38;93546.94;5070865;28;20441;-52
2022/04/02 04:31:01;;;;;;;3.13;1.10;;;;;;;17.06;36.92;93527.50;5071500;28;20450;-58
2022/04/02 04:33:28;;;;;;;3.87;1.40;;;;;;;15.88;39.13;93551.19;5072239;28;20815;-59
2022/04/02 04:35:57;;;;;;;1.90;1.23;;;;;;;16.86;38.05;93552.16;5071294;28;20862;-59
2022/04/02 04:38:25;;;;;;;2.13;1.27;;;;;;;16.93;38.45;93554.28;5070377;28;20848;-57
2022/04/02 04:40:54;;;;;;;2.77;1.30;;;;;;;16.81;38.37;93539.13;5069817;28;20444;-53
2022/04/02 04:43:24;;;;;;;8.13;1.53;;;;;;;16.07;38.90;93559.47;5070210;28;20447;-54
2022/04/02 04:45:51;;;;;;;1.67;0.97;;;;;;;15.48;39.66;93589.59;5071721;28;20457;-61
2022/04/02 04:48:21;;;;;;;4.00;1.30;;;;;;;16.25;38.72;93566.19;5071903;28;20419;-61
2022/04/02 04:50:52;;;;;;;1.60;1.20;;;;;;;16.65;38.39;93562.00;5069971;28;20442;-60
2022/04/02 04:53:20;;;;;;;3.07;1.30;;;;;;;16.74;38.54;93567.97;5087293;28;20438;-55
2022/04/02 04:55:48;;;;;;;3.10;1.40;;;;;;;16.85;37.63;93587.66;5086364;28;20440;-55
2022/04/02 04:58:19;;;;;;;2.90;1.40;;;;;;;16.14;37.93;93591.44;5070107;28;20434;-50
2022/04/02 05:00:48;;;;;;;5.57;1.67;;;;;;;16.69;38.01;93592.00;5069949;28;20456;-53
2022/04/02 05:03:15;;;;;;;3.30;1.40;;;;;;;16.50;39.48;93583.75;5056107;28;20449;-56
2022/04/02 05:05:47;;;;;;;3.50;1.63;;;;;;;16.28;39.56;93572.69;5065450;28;20455;-53
2022/04/02 05:08:20;;;;;;;4.13;1.50;;;;;;;16.78;37.62;93578.69;5077375;28;20446;-58
2022/04/02 05:10:49;;;;;;;4.07;1.50;;;;;;;16.81;37.79;93573.50;5068541;28;20449;-57
2022/04/02 05:13:22;;;;;;;1.77;1.27;;;;;;;17.08;37.23;93559.69;5069133;28;20453;-50
2022/04/02 05:15:53;;;;;;;2.33;1.40;;;;;;;16.49;38.09;93576.91;5069398;28;20519;-53
2022/04/02 05:18:23;;;;;;;4.20;1.30;;;;;;;16.53;36.21;93584.97;5055073;28;20449;-53
2022/04/02 05:20:50;;;;;;;4.23;1.40;;;;;;;17.32;35.45;93572.22;5057427;28;20465;-59
2022/04/02 05:23:18;;;;;;;6.97;1.50;;;;;;;17.50;35.25;93578.13;5061699;28;20968;-62
2022/04/02 05:25:49;;;;;;;2.60;1.10;;;;;;;17.73;34.51;93573.94;5065952;28;20453;-61
2022/04/02 05:28:16;;;;;;;7.20;1.83;;;;;;;17.91;35.53;93584.00;5060954;28;20449;-64
2022/04/02 05:30:46;;;;;;;3.63;1.10;;;;;;;17.84;34.90;93580.34;5065339;28;20469;-53
2022/04/02 05:33:13;;;;;;;2.53;1.37;;;;;;;18.09;34.58;93579.22;5069960;28;20450;-57
2022/04/02 05:36:00;;;;;;;2.67;1.50;;;;;;;18.03;35.11;93576.03;5069889;28;20430;-57
2022/04/02 05:38:27;;;;;;;3.90;1.20;;;;;;;18.03;33.79;93580.53;5069275;28;20458;-58
2022/04/02 05:40:54;;;;;;;4.00;1.70;;;;;;;18.22;34.24;93583.41;5085451;28;20484;-63
2022/04/02 05:43:21;;;;;;;4.57;1.50;;;;;;;18.43;34.10;93583.28;5068987;28;20498;-61
2022/04/02 05:45:48;;;;;;;3.43;1.00;;;;;;;18.19;33.80;93574.22;5068056;28;20512;-57
2022/04/02 05:48:17;;;;;;;4.03;0.93;;;;;;;17.51;31.75;93584.97;5069656;28;20444;-58
2022/04/02 05:50:44;;;;;;;3.47;0.70;;;;;;;17.19;32.26;93574.06;5069470;28;20449;-56
2022/04/02 05:53:11;;;;;;;1.97;0.90;;;;;;;18.22;31.00;93578.09;5071133;28;20422;-61
2022/04/02 05:55:38;;;;;;;1.90;0.50;;;;;;;18.41;30.32;93570.34;5070599;28;20898;-58
2022/04/02 05:58:06;;;;;;;1.37;0.60;;;;;;;17.96;29.81;93569.72;5061912;28;20442;-56
2022/04/02 06:00:33;;;;;;;3.40;0.80;;;;;;;18.13;30.34;93586.19;5070191;28;20627;-58
2022/04/02 06:03:03;;;;;;;2.37;0.77;;;;;;;18.01;32.15;93588.09;5069765;28;20454;-55
2022/04/02 06:05:30;;;;;;;2.40;0.60;;;;;;;18.28;30.71;93595.34;5069670;28;20436;-56
2022/04/02 06:07:57;;;;;;;3.57;1.07;;;;;;;18.90;30.38;93592.22;5070007;28;20832;-61
2022/04/02 06:10:24;;;;;;;2.73;0.60;;;;;;;19.43;29.92;93583.00;5069350;28;20523;-53
2022/04/02 06:12:51;;;;;;;1.90;0.73;;;;;;;19.15;30.42;93589.09;5070056;28;20438;-53
2022/04/02 06:15:20;;;;;;;2.47;0.63;;;;;;;18.02;30.38;93608.94;5068859;28;20445;-63
2022/04/02 06:17:47;;;;;;;1.17;0.53;;;;;;;18.18;30.48;93614.34;5069665;28;20830;-62
2022/04/02 06:20:14;;;;;;;0.70;0.57;;;;;;;18.32;30.11;93604.16;5069099;28;20490;-62
2022/04/02 06:22:41;;;;;;;4.77;0.87;;;;;;;18.78;31.52;93608.94;5069815;28;20454;-59
2022/04/02 06:25:09;;;;;;;2.63;0.90;;;;;;;19.10;30.73;93602.59;5068945;28;20503;-60
2022/04/02 06:27:46;;;;;;;2.30;0.70;;;;;;;19.54;30.04;93599.97;5069275;28;20473;-57
2022/04/02 06:30:17;;;;;;;3.50;0.70;;;;;;;19.26;28.89;93615.94;5069116;28;20492;-60
2022/04/02 06:32:52;;;;;;;2.37;0.70;;;;;;;19.56;29.11;93622.41;5069547;28;20434;-59
2022/04/02 06:35:19;;;;;;;2.30;0.77;;;;;;;19.62;28.52;93596.38;5067669;28;20446;-57
2022/04/02 06:37:48;;;;;;;2.00;0.87;;;;;;;19.74;29.70;93614.91;5068117;28;20474;-54
2022/04/02 06:40:16;;;;;;;2.53;0.60;;;;;;;19.50;29.52;93623.03;5069259;28;20481;-59
2022/04/02 06:42:43;;;;;;;4.33;0.80;;;;;;;19.56;29.78;93624.34;5069467;28;21038;-63
2022/04/02 06:45:18;;;;;;;3.33;1.00;;;;;;;19.82;29.81;93641.31;5068884;28;20537;-59
2022/04/02 06:47:45;;;;;;;1.33;0.80;;;;;;;19.99;29.45;93629.56;5069210;28;20968;-57
2022/04/02 06:50:14;;;;;;;2.43;0.90;;;;;;;19.74;30.39;93628.19;5069279;28;20525;-53
2022/04/02 06:52:42;;;;;;;2.40;0.90;;;;;;;19.77;29.38;93636.25;5069446;28;20473;-59
2022/04/02 06:55:13;;;;;;;3.17;0.93;;;;;;;19.89;28.69;93635.41;5068880;28;20445;-55
2022/04/02 06:57:53;;;;;;;4.23;1.23;;;;;;;19.86;28.98;93628.09;5069208;28;20449;-59
2022/04/02 07:00:21;;;;;;;4.40;0.90;;;;;;;19.69;29.64;93631.13;5068798;28;20485;-55
2022/04/02 07:02:48;;;;;;;4.87;0.97;;;;;;;19.76;29.63;93628.63;5069134;28;20438;-56
2022/04/02 07:05:16;;;;;;;2.43;0.77;;;;;;;19.87;28.41;93640.28;5066829;28;21041;-61
2022/04/02 07:07:46;;;;;;;2.90;0.87;;;;;;;19.23;28.24;93642.41;5067540;28;20946;-57
2022/04/02 07:10:14;;;;;;;4.13;0.93;;;;;;;18.85;28.36;93646.28;5067821;28;20446;-63
2022/04/02 07:12:41;;;;;;;5.37;1.10;;;;;;;19.18;28.57;93656.69;5068539;28;20983;-55
2022/04/02 07:15:10;;;;;;;2.90;1.30;;;;;;;19.60;29.52;93646.44;5067444;28;20533;-58
2022/04/02 07:17:37;;;;;;;3.10;0.90;;;;;;;19.95;29.07;93637.47;5066564;28;20553;-61
2022/04/02 07:20:06;;;;;;;1.83;0.70;;;;;;;19.91;28.75;93643.78;5068490;28;21003;-59
2022/04/02 07:22:36;;;;;;;1.93;1.00;;;;;;;19.99;28.83;93648.16;5069415;28;20437;-56
2022/04/02 07:25:04;;;;;;;5.23;2.00;;;;;;;19.70;28.86;93664.53;5066635;28;20496;-55
2022/04/02 07:27:31;;;;;;;3.37;1.70;;;;;;;19.96;28.56;93664.81;5068339;28;20927;-54
2022/04/02 07:30:02;;;;;;;2.97;1.33;;;;;;;19.96;28.27;93664.81;5066961;28;20438;-56
2022/04/02 07:32:30;;;;;;;6.93;1.30;;;;;;;19.69;28.02;93665.66;5063010;28;20487;-59
2022/04/02 07:34:57;;;;;;;1.80;1.17;;;;;;;19.61;28.20;93674.56;5047526;28;20492;-61
2022/04/02 07:37:44;;;;;;;4.93;1.40;;;;;;;19.68;28.18;93677.38;5047439;28;20549;-55
2022/04/02 07:40:16;;;;;;;4.83;1.63;;;;;;;19.81;30.06;93678.88;5047968;28;20523;-57
2022/04/02 07:42:51;;;;;;;4.03;1.13;;;;;;;19.88;28.43;93663.09;5047576;28;20528;-56
2022/04/02 07:45:26;;;;;;;3.30;1.10;;;;;;;19.90;29.52;93661.66;5052280;28;20899;-59
2022/04/02 07:47:57;;;;;;;1.83;0.90;;;;;;;20.12;28.91;93662.94;5047460;28;20535;-62
2022/04/02 07:50:27;;;;;;;4.03;1.20;;;;;;;20.00;28.45;93663.78;5047497;28;20529;-55
2022/04/02 07:52:55;;;;;;;3.63;1.53;;;;;;;19.84;28.30;93667.53;5047842;28;20494;-62
2022/04/02 07:55:29;;;;;;;4.07;0.97;;;;;;;20.04;27.31;93671.84;5053192;28;20478;-51
2022/04/02 07:58:00;;;;;;;1.17;0.80;;;;;;;20.02;27.31;93674.84;5047805;28;20890;-62
2022/04/02 08:00:28;;;;;;;3.10;1.20;;;;;;;19.94;27.46;93667.81;5050572;28;20544;-58
2022/04/02 08:02:56;;;;;;;3.10;1.00;;;;;;;19.37;27.68;93664.81;5060798;28;20450;-59
2022/04/02 08:05:24;;;;;;;9.67;1.60;;;;;;;19.83;28.94;93655.38;5070550;28;20838;-60
2022/04/02 08:07:57;;;;;;;2.87;1.23;;;;;;;19.93;27.75;93665.50;5070858;28;20438;-55
2022/04/02 08:10:34;;;;;;;4.43;1.17;;;;;;;18.85;27.60;93682.69;5070490;28;20507;-58
2022/04/02 08:13:01;;;;;;;25.47;18.07;;;;;;;19.18;27.68;93681.34;5071346;28;20539;-53
2022/04/02 08:15:28;;;;;;;55.70;39.50;;;;;;;19.44;27.11;93658.91;5070947;28;20464;-52
2022/04/02 08:18:05;;;;;;;66.43;55.53;;;;;;;19.59;28.12;93648.34;5070809;28;20445;-60
2022/04/02 08:20:32;;;;;;;5.67;1.53;;;;;;;20.05;27.17;93647.56;5070948;28;20477;-61
2022/04/02 08:23:01;;;;;;;1.67;0.90;;;;;;;19.90;27.53;93635.06;5072086;28;20441;-54
2022/04/02 08:25:36;;;;;;;3.40;1.00;;;;;;;20.38;26.93;93644.56;5070148;28;20552;-62
2022/04/02 08:28:36;;;;;;;5.10;1.50;;;;;;;20.12;26.60;93647.75;5071666;28;20441;-53
2022/04/02 08:31:18;;;;;;;1.73;1.20;;;;;;;20.25;27.61;93624.50;5072500;28;20469;-61
2022/04/02 08:34:03;;;;;;;4.33;1.70;;;;;;;20.64;27.31;93623.47;5072924;28;20547;-60
2022/04/02 08:37:02;;;;;;;6.30;1.20;;;;;;;20.08;27.38;93635.47;5070809;28;20461;-58
2022/04/02 08:40:00;;;;;;;3.60;1.83;;;;;;;19.89;28.06;93638.06;5064330;28;20493;-58
2022/04/02 08:43:01;;;;;;;4.27;1.20;;;;;;;20.17;28.08;93649.41;5050179;28;20456;-54
2022/04/02 08:45:37;;;;;;;3.87;1.90;;;;;;;20.18;27.62;93657.03;5067742;28;20438;-64
2022/04/02 08:48:50;;;;;;;15.57;12.07;;;;;;;19.91;26.97;93684.44;5051984;28;20437;-62
2022/04/02 08:51:32;;;;;;;4.03;0.90;;;;;;;19.88;26.69;93695.00;5024842;28;20539;-55
2022/04/02 08:54:04;;;;;;;4.37;1.63;;;;;;;20.13;27.42;93685.75;5067841;28;20489;-56
2022/04/02 08:56:43;;;;;;;6.60;1.83;;;;;;;20.41;27.68;93686.44;5071401;28;20497;-58
2022/04/02 08:59:31;;;;;;;3.70;1.07;;;;;;;19.82;25.56;93706.97;5071166;28;20964;-57
2022/04/02 09:02:27;;;;;;;101.93;73.17;;;;;;;19.53;26.03;93689.53;5071711;28;20850;-60
2022/04/02 09:05:14;;;;;;;11.53;8.50;;;;;;;19.92;26.90;93679.91;5087493;28;20453;-61
2022/04/02 09:08:26;;;;;;;8.03;6.03;;;;;;;19.71;26.23;93668.72;5091454;28;20832;-53
2022/04/02 09:11:05;;;;;;;2.10;0.80;;;;;;;17.76;28.70;93711.03;5090485;28;20441;-59
2022/04/02 09:13:59;;;;;;;17.20;13.00;;;;;;;18.43;28.77;93694.69;5091469;28;20440;-56
2022/04/02 09:16:49;;;;;;;5.90;4.43;;;;;;;18.63;29.40;93662.69;5090640;28;20473;-61
2022/04/02 09:19:37;;;;;;;2.10;0.90;;;;;;;18.71;28.45;93653.06;5090962;28;20445;-61
2022/04/02 09:22:19;;;;;;;1.30;0.87;;;;;;;19.00;27.49;93650.09;5090942;28;20815;-55
2022/04/02 09:25:04;;;;;;;4.77;1.27;;;;;;;18.18;28.98;93640.84;5080758;28;20554;-55
2022/04/02 09:28:03;;;;;;;3.63;1.60;;;;;;;18.69;29.49;93645.44;5050598;28;20449;-61
2022/04/02 09:30:48;;;;;;;4.30;1.53;;;;;;;18.75;28.42;93646.78;5019062;28;20453;-59
2022/04/02 09:33:33;;;;;;;2.47;1.03;;;;;;;18.70;28.19;93668.22;5050956;28;20542;-58
2022/04/02 09:36:04;;;;;;;2.73;1.20;;;;;;;18.90;27.26;93683.19;5050414;28;20541;-58
2022/04/02 09:38:55;;;;;;;2.07;1.17;;;;;;;19.77;26.35;93683.31;5050393;28;20486;-59
2022/04/02 09:41:22;;;;;;;2.10;1.00;;;;;;;20.78;26.54;93652.28;5050033;28;20486;-56
2022/04/02 09:43:59;;;;;;;2.80;1.00;;;;;;;21.42;25.96;93659.69;5050301;28;20427;-57
2022/04/02 09:46:29;;;;;;;2.30;0.80;;;;;;;20.96;25.10;93670.19;5049994;28;20796;-60
2022/04/02 09:49:07;;;;;;;2.60;0.60;;;;;;;20.17;25.89;93660.81;5049577;28;20466;-61
2022/04/02 09:51:35;;;;;;;1.23;0.70;;;;;;;20.36;26.04;93684.06;5049636;28;20541;-58
2022/04/02 09:54:24;;;;;;;3.83;0.80;;;;;;;20.23;25.71;93656.00;5050701;28;20505;-61
2022/04/02 09:57:08;;;;;;;1.93;0.80;;;;;;;20.48;25.70;93649.34;5050646;28;20439;-63
2022/04/02 10:00:18;;;;;;;2.10;0.60;;;;;;;21.11;25.21;93645.38;5050067;28;20431;-55
2022/04/02 10:03:08;;;;;;;2.20;1.20;;;;;;;20.60;25.99;93646.56;4996248;28;20481;-58
2022/04/02 10:06:04;;;;;;;2.83;1.30;;;;;;;21.13;25.72;93616.50;5049725;28;20445;-56
2022/04/02 10:08:56;;;;;;;2.70;1.20;;;;;;;21.76;25.21;93610.78;5023665;28;20753;-58
2022/04/02 10:11:28;;;;;;;8.13;1.43;;;;;;;21.10;25.58;93606.56;5050171;28;20538;-54
2022/04/02 10:14:00;;;;;;;1.30;1.20;;;;;;;21.10;25.48;93611.91;5050324;28;20447;-56
2022/04/02 10:16:29;;;;;;;2.50;1.00;;;;;;;21.54;24.52;93598.22;5049444;28;20453;-64
2022/04/02 10:18:59;;;;;;;2.87;0.90;;;;;;;21.17;24.37;93584.59;5049756;28;20470;-60
2022/04/02 10:21:30;;;;;;;3.83;1.07;;;;;;;20.99;24.68;93591.47;5049472;28;21032;-61
2022/04/02 10:24:23;;;;;;;4.90;0.90;;;;;;;21.69;23.83;93584.78;5049812;28;20526;-57
2022/04/02 10:26:53;;;;;;;2.20;0.90;;;;;;;21.19;23.50;93574.38;5046484;28;20451;-57
2022/04/02 10:29:57;;;;;;;3.43;0.70;;;;;;;20.57;24.08;93583.41;5049464;28;20423;-59
2022/04/02 10:32:51;;;;;;;2.30;0.93;;;;;;;20.63;24.04;93590.00;5050055;28;20446;-58
2022/04/02 10:35:20;;;;;;;4.47;0.90;;;;;;;20.77;23.30;93582.28;5048916;28;20522;-62
2022/04/02 10:38:16;;;;;;;2.30;0.70;;;;;;;20.50;24.18;93567.28;5049663;28;20479;-59
2022/04/02 10:40:50;;;;;;;2.27;0.70;;;;;;;20.90;24.45;93575.72;5047562;28;20509;-55
2022/04/02 10:43:25;;;;;;;0.87;0.70;;;;;;;20.51;24.36;93541.47;5049543;28;20868;-59
2022/04/02 10:45:53;;;;;;;0.57;0.57;;;;;;;20.89;23.99;93568.81;5048766;28;20493;-56
2022/04/02 10:48:49;;;;;;;0.60;0.60;;;;;;;21.36;23.75;93562.50;5049090;28;20482;-56
2022/04/02 10:51:22;;;;;;;1.17;0.80;;;;;;;21.44;23.68;93582.81;5048885;28;20498;-62
2022/04/02 10:54:04;;;;;;;1.17;0.80;;;;;;;21.55;23.32;93581.88;5048951;28;20851;-61
2022/04/02 10:56:41;;;;;;;3.00;0.70;;;;;;;21.40;22.82;93576.66;5049329;28;20533;-58
2022/04/02 10:59:09;;;;;;;0.90;0.67;;;;;;;21.18;23.21;93554.19;5048735;28;20827;-58
2022/04/02 11:01:41;;;;;;;2.30;0.80;;;;;;;20.79;23.37;93580.06;5048918;28;20500;-50
2022/04/02 11:04:21;;;;;;;2.37;0.70;;;;;;;20.68;23.93;93583.59;5048759;28;20875;-58
2022/04/02 11:06:49;;;;;;;3.07;0.73;;;;;;;21.06;23.56;93587.06;5049117;28;20446;-60
2022/04/02 11:09:30;;;;;;;1.40;0.70;;;;;;;20.83;23.53;93591.56;5048229;28;20497;-58
2022/04/02 11:12:18;;;;;;;0.87;0.60;;;;;;;20.47;24.06;93586.63;5049291;28;20519;-61
2022/04/02 11:14:47;;;;;;;2.07;0.83;;;;;;;20.16;24.33;93610.59;5048883;28;20450;-56
2022/04/02 11:17:35;;;;;;;1.20;0.77;;;;;;;19.90;25.59;93647.56;5048528;28;20447;-58
2022/04/02 11:20:17;;;;;;;1.90;0.93;;;;;;;18.06;34.10;93657.53;5048464;28;20957;-62
2022/04/02 11:22:51;;;;;;;3.37;1.40;;;;;;;18.40;35.52;93696.09;5049191;28;21012;-59
2022/04/02 11:25:28;;;;;;;5.33;1.40;;;;;;;17.67;38.13;93670.63;5048555;28;20439;-59
2022/04/02 11:28:09;;;;;;;20.07;13.50;;;;;;;18.03;36.97;93665.34;5048928;28;20439;-61
2022/04/02 11:30:37;;;;;;;3.80;2.00;;;;;;;17.87;37.52;93673.19;5048279;28;20467;-60
2022/04/02 11:33:24;;;;;;;2.00;1.80;;;;;;;18.59;37.75;93691.03;5049131;28;20967;-61
2022/04/02 11:36:06;;;;;;;6.57;1.90;;;;;;;18.92;37.44;93670.38;5048370;28;20435;-57
2022/04/02 11:38:39;;;;;;;3.60;1.67;;;;;;;18.48;39.21;93676.66;5048621;28;20990;-58
2022/04/02 11:41:20;;;;;;;3.90;1.53;;;;;;;17.94;38.34;93691.19;5047720;28;20478;-58
2022/04/02 11:43:51;;;;;;;2.60;1.27;;;;;;;17.48;39.53;93702.91;5048865;28;20447;-58
2022/04/02 11:46:21;;;;;;;3.10;1.17;;;;;;;16.96;40.26;93702.56;5048031;28;20977;-60
2022/04/02 11:48:58;;;;;;;1.60;0.93;;;;;;;17.01;40.24;93693.66;5048297;28;20457;-60
2022/04/02 11:51:28;;;;;;;2.47;1.20;;;;;;;17.29;40.01;93704.47;5048075;28;20457;-57
2022/04/02 11:54:10;;;;;;;2.23;1.40;;;;;;;17.00;41.33;93727.28;5048250;28;20454;-58
2022/04/02 11:56:43;;;;;;;3.00;1.50;;;;;;;16.38;42.68;93744.13;5047571;28;20529;-61
2022/04/02 11:59:15;;;;;;;6.37;1.70;;;;;;;16.24;44.93;93776.06;5047684;28;20451;-60
2022/04/02 12:01:51;;;;;;;4.07;1.60;;;;;;;16.45;45.20;93792.00;5048320;28;20499;-57
2022/04/02 12:04:22;;;;;;;3.40;1.70;;;;;;;15.89;46.65;93811.63;5046995;28;20443;-59
2022/04/02 12:06:50;;;;;;;3.37;1.00;;;;;;;15.28;48.38;93802.16;5047568;28;20438;-59